Details for EasyJet at LFLL




Go Back


Latest METAR
Local Time

LFLL 252200Z 14005KT CAVOK 22/13 Q1015 NOSIG

26/05/2018, 00:15:10

Description
Results
EasyJet Logo
Number of Pilots based at LFLL
0 Pilots Based here
Number of EasyJet Flights Departed from LFLL
2 Flights Departed
Number of EasyJet Flights Arrived at LFLL
2 Flights Arrived
Number of EasyJet Schedules Departing from LFLL
153 Schedules
Number of EasyJet Schedules Arriving at LFLL
149 Schedules
Number of EasyJet Schedules Departing from LFLL availible today
48 Schedules Today
Number of EasyJet Schedules Arriving at LFLL availible today
49 Schedules Today
Average Landing Rate at LFLL
-227 fpm
EasyJet Average Landing Rate at LFLL
-157 fpm
Total Fuel Purchased at LFLL by EasyJet
6,348.03 kgs / 13,994.87 lbs

Pilots Based at LFLL


Pilot ID
Pilot Name
Pilot Rank
No. of Flights
No. of Flying Hours
There are no pilots assigned to this hub!   Will you be the first?
Content